createdAt,value
2024-01-27T00:00:57.198Z,5.50
2024-01-27T00:03:24.640Z,5.40
2024-01-27T00:05:52.170Z,5.40
2024-01-27T00:08:19.737Z,5.40
2024-01-27T00:10:47.261Z,5.30
2024-01-27T00:13:14.735Z,5.20
2024-01-27T00:15:42.108Z,5.20
2024-01-27T00:18:10.292Z,5.10
2024-01-27T00:20:38.952Z,5.00
2024-01-27T00:23:06.274Z,5.00
2024-01-27T00:25:33.593Z,4.90
2024-01-27T00:28:00.960Z,4.90
2024-01-27T00:30:28.422Z,4.90
2024-01-27T00:32:55.837Z,4.80
2024-01-27T00:35:23.450Z,5.00
2024-01-27T00:37:50.841Z,4.90
2024-01-27T00:40:18.399Z,4.90
2024-01-27T00:42:45.767Z,4.90
2024-01-27T00:45:14.651Z,4.90
2024-01-27T00:47:42.287Z,4.90
2024-01-27T00:50:09.997Z,4.80
2024-01-27T00:52:37.346Z,4.80
2024-01-27T00:55:05.090Z,4.80
2024-01-27T00:57:32.414Z,4.80
2024-01-27T00:59:59.805Z,4.90
2024-01-27T01:02:27.254Z,4.70
2024-01-27T01:04:54.563Z,4.60
2024-01-27T01:07:21.924Z,4.60
2024-01-27T01:09:49.661Z,4.50
2024-01-27T01:12:17.207Z,4.60
2024-01-27T01:14:45.147Z,4.60
2024-01-27T01:17:14.633Z,4.60
2024-01-27T01:19:42.582Z,4.60
2024-01-27T01:22:12.518Z,4.70
2024-01-27T01:24:40.790Z,4.70
2024-01-27T01:27:08.227Z,4.70
2024-01-27T01:29:36.215Z,4.70
2024-01-27T01:32:04.241Z,4.60
2024-01-27T01:34:32.943Z,4.60
2024-01-27T01:37:00.769Z,4.60
2024-01-27T01:39:28.189Z,4.60
2024-01-27T01:41:55.644Z,4.50
2024-01-27T01:44:23.113Z,4.50
2024-01-27T01:46:50.519Z,4.70
2024-01-27T01:49:17.976Z,4.50
2024-01-27T01:51:45.575Z,4.50
2024-01-27T01:54:13.574Z,4.50
2024-01-27T01:56:43.616Z,4.50
2024-01-27T01:59:10.956Z,4.50
2024-01-27T02:01:38.384Z,4.40
2024-01-27T02:04:06.468Z,4.40
2024-01-27T02:06:33.824Z,4.40
2024-01-27T02:09:01.364Z,4.40
2024-01-27T02:11:28.742Z,4.40
2024-01-27T02:13:56.529Z,4.40
2024-01-27T02:16:24.434Z,4.40
2024-01-27T02:18:55.141Z,4.40
2024-01-27T02:21:22.721Z,4.40
2024-01-27T02:23:50.117Z,4.50
2024-01-27T02:26:17.561Z,4.50
2024-01-27T02:28:46.024Z,4.50
2024-01-27T02:31:13.324Z,4.50
2024-01-27T02:33:40.855Z,4.50
2024-01-27T02:36:08.411Z,4.50
2024-01-27T02:38:35.870Z,4.50
2024-01-27T02:41:03.180Z,4.50
2024-01-27T02:43:30.497Z,4.40
2024-01-27T02:45:57.864Z,4.50
2024-01-27T02:48:25.282Z,4.50
2024-01-27T02:50:52.819Z,4.50
2024-01-27T02:53:20.183Z,5.00
2024-01-27T02:55:47.635Z,4.50
2024-01-27T02:58:15.060Z,4.50
2024-01-27T03:00:42.717Z,4.50
2024-01-27T03:03:10.133Z,4.40
2024-01-27T03:05:39.726Z,4.50
2024-01-27T03:08:07.574Z,4.40
2024-01-27T03:10:34.961Z,4.40
2024-01-27T03:13:02.329Z,4.40
2024-01-27T03:15:30.174Z,4.40
2024-01-27T03:17:57.678Z,4.40
2024-01-27T03:20:25.078Z,4.40
2024-01-27T03:22:52.482Z,4.40
2024-01-27T03:25:19.878Z,4.40
2024-01-27T03:27:47.220Z,4.40
2024-01-27T03:30:14.716Z,4.40
2024-01-27T03:32:42.264Z,4.40
2024-01-27T03:35:09.978Z,4.40
2024-01-27T03:37:37.663Z,4.40
2024-01-27T03:40:05.606Z,4.40
2024-01-27T03:42:32.994Z,4.40
2024-01-27T03:45:00.380Z,4.40
2024-01-27T03:47:27.816Z,4.30
2024-01-27T03:49:55.291Z,4.40
2024-01-27T03:52:23.230Z,4.30
2024-01-27T03:54:50.592Z,4.30
2024-01-27T03:57:18.248Z,4.30
2024-01-27T03:59:45.675Z,4.30
2024-01-27T04:02:13.090Z,4.30
2024-01-27T04:04:40.575Z,4.30
2024-01-27T04:07:08.336Z,4.30
2024-01-27T04:09:35.948Z,4.30
2024-01-27T04:12:03.504Z,4.30
2024-01-27T04:14:30.803Z,4.20
2024-01-27T04:16:58.153Z,4.20
2024-01-27T04:19:25.599Z,4.10
2024-01-27T04:21:52.996Z,4.10
2024-01-27T04:24:21.216Z,4.00
2024-01-27T04:26:49.515Z,4.10
2024-01-27T04:29:16.942Z,4.00
2024-01-27T04:31:44.342Z,4.00
2024-01-27T04:34:11.906Z,4.10
2024-01-27T04:36:39.553Z,4.10
2024-01-27T04:39:07.288Z,4.10
2024-01-27T04:41:34.724Z,4.00
2024-01-27T04:44:02.045Z,4.00
2024-01-27T04:46:29.468Z,3.90
2024-01-27T04:48:56.923Z,3.80
2024-01-27T04:51:24.296Z,3.80
2024-01-27T04:53:51.894Z,3.80
2024-01-27T04:56:19.990Z,3.70
2024-01-27T04:58:47.398Z,3.70
2024-01-27T05:01:14.884Z,3.70
2024-01-27T05:03:43.145Z,3.80
2024-01-27T05:06:11.099Z,3.70
2024-01-27T05:08:38.813Z,3.70
2024-01-27T05:11:06.152Z,3.70
2024-01-27T05:13:33.519Z,3.80
2024-01-27T05:16:00.887Z,3.80
2024-01-27T05:18:28.548Z,3.80
2024-01-27T05:20:56.110Z,3.80
2024-01-27T05:23:24.508Z,3.90
2024-01-27T05:25:51.894Z,3.90
2024-01-27T05:28:19.282Z,3.90
2024-01-27T05:30:46.771Z,3.90
2024-01-27T05:33:14.205Z,4.00
2024-01-27T05:35:41.646Z,4.00
2024-01-27T05:38:09.714Z,3.90
2024-01-27T05:40:39.369Z,3.90
2024-01-27T05:43:08.406Z,3.80
2024-01-27T05:45:35.863Z,3.80
2024-01-27T05:48:05.945Z,3.80
2024-01-27T05:50:33.378Z,3.70
2024-01-27T05:53:03.099Z,3.70
2024-01-27T05:55:30.514Z,3.70
2024-01-27T05:57:58.399Z,3.80
2024-01-27T06:00:25.808Z,3.80
2024-01-27T06:02:53.253Z,3.80
2024-01-27T06:05:20.568Z,3.80
2024-01-27T06:07:49.088Z,3.80
2024-01-27T06:10:16.496Z,3.80
2024-01-27T06:12:46.341Z,3.80
2024-01-27T06:15:13.788Z,3.90
2024-01-27T06:17:41.159Z,4.00
2024-01-27T06:20:09.245Z,4.00
2024-01-27T06:22:37.808Z,4.00
2024-01-27T06:25:08.799Z,4.00
2024-01-27T06:27:36.220Z,3.90
2024-01-27T06:30:03.792Z,4.00
2024-01-27T06:32:31.196Z,4.00
2024-01-27T06:34:58.602Z,3.90
2024-01-27T06:37:26.000Z,4.00
2024-01-27T06:39:53.329Z,4.00
2024-01-27T06:42:20.754Z,3.90
2024-01-27T06:44:49.677Z,3.90
2024-01-27T06:47:17.875Z,3.90
2024-01-27T06:49:47.486Z,3.80
2024-01-27T06:52:14.875Z,3.80
2024-01-27T06:54:45.372Z,3.80
2024-01-27T06:57:23.328Z,3.70
2024-01-27T06:59:53.694Z,3.70
2024-01-27T07:02:28.497Z,3.70
2024-01-27T07:04:56.338Z,3.70
2024-01-27T07:07:26.744Z,3.60
2024-01-27T07:09:55.658Z,3.60
2024-01-27T07:12:23.109Z,3.60
2024-01-27T07:14:51.382Z,3.60
2024-01-27T07:17:19.662Z,3.50
2024-01-27T07:19:47.200Z,3.40
2024-01-27T07:22:14.824Z,3.40
2024-01-27T07:24:42.580Z,3.40
2024-01-27T07:27:13.422Z,3.50
2024-01-27T07:29:41.365Z,3.50
2024-01-27T07:32:14.193Z,3.50
2024-01-27T07:34:45.468Z,3.60
2024-01-27T07:37:13.033Z,3.60
2024-01-27T07:39:40.672Z,3.70
2024-01-27T07:42:08.206Z,3.70
2024-01-27T07:44:35.729Z,3.70
2024-01-27T07:47:03.110Z,3.60
2024-01-27T07:49:30.568Z,3.60
2024-01-27T07:51:58.041Z,3.60
2024-01-27T07:54:25.388Z,3.50
2024-01-27T07:56:53.067Z,3.50
2024-01-27T07:59:20.657Z,3.50
2024-01-27T08:01:47.990Z,3.50
2024-01-27T08:04:16.949Z,3.50
2024-01-27T08:06:52.156Z,3.50
2024-01-27T08:09:19.812Z,3.50
2024-01-27T08:11:52.703Z,3.50
2024-01-27T08:14:21.107Z,3.50
2024-01-27T08:16:48.498Z,3.40
2024-01-27T08:19:21.626Z,3.60
2024-01-27T08:21:49.463Z,3.70
2024-01-27T08:24:17.200Z,3.80
2024-01-27T08:26:44.600Z,3.90
2024-01-27T08:29:12.237Z,3.90
2024-01-27T08:31:40.072Z,3.90
2024-01-27T08:34:08.124Z,4.00
2024-01-27T08:36:36.201Z,4.00
2024-01-27T08:39:04.399Z,4.20
2024-01-27T08:41:31.730Z,4.20
2024-01-27T08:44:00.172Z,4.30
2024-01-27T08:46:27.678Z,4.30
2024-01-27T08:48:55.445Z,4.40
2024-01-27T08:51:22.841Z,4.50
2024-01-27T08:53:50.310Z,4.60
2024-01-27T08:56:21.105Z,4.60
2024-01-27T08:58:48.824Z,4.70
2024-01-27T09:01:17.827Z,4.80
2024-01-27T09:03:45.628Z,4.90
2024-01-27T09:06:13.707Z,5.00
2024-01-27T09:08:41.160Z,5.10
2024-01-27T09:11:10.304Z,5.20
2024-01-27T09:13:37.663Z,5.20
2024-01-27T09:16:05.993Z,5.30
2024-01-27T09:18:36.024Z,5.30
2024-01-27T09:21:03.581Z,5.40
2024-01-27T09:23:31.043Z,5.40
2024-01-27T09:25:58.418Z,5.50
2024-01-27T09:28:25.720Z,5.50
2024-01-27T09:30:53.509Z,5.50
2024-01-27T09:33:24.280Z,5.50
2024-01-27T09:35:51.839Z,5.60
2024-01-27T09:38:19.251Z,5.60
2024-01-27T09:40:47.688Z,5.70
2024-01-27T09:43:15.922Z,5.80
2024-01-27T09:45:43.428Z,5.80
2024-01-27T09:48:13.543Z,5.90
2024-01-27T09:50:46.588Z,5.90
2024-01-27T09:53:14.042Z,6.00
2024-01-27T09:55:41.360Z,6.00
2024-01-27T09:58:09.889Z,6.10
2024-01-27T10:00:37.977Z,6.10
2024-01-27T10:03:07.253Z,6.20
2024-01-27T10:05:36.228Z,6.30
2024-01-27T10:08:09.608Z,6.40
2024-01-27T10:10:37.175Z,6.50
2024-01-27T10:13:05.479Z,6.60
2024-01-27T10:15:33.055Z,6.70
2024-01-27T10:18:07.934Z,6.80
2024-01-27T10:20:35.828Z,6.90
2024-01-27T10:23:14.357Z,7.00
2024-01-27T10:25:42.869Z,7.10
2024-01-27T10:28:13.076Z,7.10
2024-01-27T10:30:40.612Z,7.20
2024-01-27T10:33:12.195Z,7.20
2024-01-27T10:35:40.009Z,7.30
2024-01-27T10:38:07.425Z,7.40
2024-01-27T10:40:36.339Z,7.40
2024-01-27T10:43:11.149Z,7.50
2024-01-27T10:45:40.985Z,7.60
2024-01-27T10:48:15.118Z,7.70
2024-01-27T10:50:45.511Z,7.80
2024-01-27T10:53:24.894Z,7.80
2024-01-27T10:55:56.284Z,7.90
2024-01-27T10:58:25.648Z,8.00
2024-01-27T11:00:54.513Z,8.10
2024-01-27T11:03:23.587Z,8.20
2024-01-27T11:05:52.282Z,8.20
2024-01-27T11:08:20.832Z,8.30
2024-01-27T11:10:48.481Z,8.40
2024-01-27T11:13:16.786Z,8.40
2024-01-27T11:15:59.861Z,8.50
2024-01-27T11:18:27.943Z,8.60
2024-01-27T11:20:56.383Z,8.50
2024-01-27T11:23:34.227Z,8.60
2024-01-27T11:26:06.125Z,8.70
2024-01-27T11:28:33.570Z,8.80
2024-01-27T11:31:07.851Z,8.80
2024-01-27T11:33:42.639Z,8.80
2024-01-27T11:36:20.213Z,8.90
2024-01-27T11:38:47.666Z,8.90
2024-01-27T11:41:25.463Z,8.90
2024-01-27T11:43:54.593Z,9.00
2024-01-27T11:46:22.217Z,9.00
2024-01-27T11:48:50.319Z,9.10
2024-01-27T11:51:20.676Z,9.10
2024-01-27T11:53:48.280Z,9.20
2024-01-27T11:56:15.809Z,9.30
2024-01-27T11:58:50.287Z,9.50
2024-01-27T12:01:18.319Z,9.60
2024-01-27T12:03:46.815Z,9.80
2024-01-27T12:06:15.492Z,9.80
2024-01-27T12:08:49.392Z,10.10
2024-01-27T12:11:20.983Z,10.20
2024-01-27T12:13:53.138Z,10.30
2024-01-27T12:16:22.586Z,10.30
2024-01-27T12:18:54.630Z,10.30
2024-01-27T12:21:22.289Z,10.30
2024-01-27T12:23:52.023Z,10.30
2024-01-27T12:26:21.550Z,10.40
2024-01-27T12:28:49.545Z,10.40
2024-01-27T12:31:18.880Z,10.50
2024-01-27T12:33:53.465Z,10.60
2024-01-27T12:36:21.942Z,10.70
2024-01-27T12:39:00.606Z,10.90
2024-01-27T12:41:28.926Z,11.00
2024-01-27T12:43:57.100Z,10.90
2024-01-27T12:46:25.106Z,10.80
2024-01-27T12:48:52.870Z,10.90
2024-01-27T12:51:21.416Z,10.80
2024-01-27T12:53:48.814Z,10.60
2024-01-27T12:56:16.929Z,10.50
2024-01-27T12:58:44.540Z,10.60
2024-01-27T13:01:12.022Z,10.70
2024-01-27T13:03:44.138Z,10.70
2024-01-27T13:06:14.133Z,10.90
2024-01-27T13:08:42.794Z,10.80
2024-01-27T13:11:10.801Z,10.60
2024-01-27T13:13:38.141Z,10.60
2024-01-27T13:16:05.862Z,10.60
2024-01-27T13:18:33.561Z,10.80
2024-01-27T13:21:01.311Z,10.90
2024-01-27T13:23:28.861Z,11.00
2024-01-27T13:26:08.173Z,11.20
2024-01-27T13:28:43.433Z,11.20
2024-01-27T13:31:10.746Z,11.10
2024-01-27T13:33:38.245Z,11.00
2024-01-27T13:36:06.243Z,11.20
2024-01-27T13:38:35.015Z,11.30
2024-01-27T13:41:02.657Z,11.20
2024-01-27T13:43:30.261Z,11.30
2024-01-27T13:45:57.605Z,11.30
2024-01-27T13:48:25.148Z,11.20
2024-01-27T13:50:54.115Z,11.10
2024-01-27T13:53:22.584Z,11.10
2024-01-27T13:55:50.377Z,11.10
2024-01-27T13:58:19.577Z,11.10
2024-01-27T14:00:47.037Z,11.20
2024-01-27T14:03:14.857Z,11.10
2024-01-27T14:05:44.081Z,11.10
2024-01-27T14:08:11.652Z,11.20
2024-01-27T14:10:40.848Z,11.10
2024-01-27T14:13:10.347Z,11.00
2024-01-27T14:15:38.427Z,10.90
2024-01-27T14:18:07.512Z,10.90
2024-01-27T14:20:37.823Z,10.80
2024-01-27T14:23:05.682Z,10.50
2024-01-27T14:25:33.088Z,10.60
2024-01-27T14:28:00.540Z,10.50
2024-01-27T14:30:27.977Z,10.40
2024-01-27T14:32:55.513Z,10.50
2024-01-27T14:35:22.930Z,10.50
2024-01-27T14:37:50.471Z,10.50
2024-01-27T14:40:19.977Z,10.60
2024-01-27T14:42:47.789Z,10.60
2024-01-27T14:45:16.024Z,10.60
2024-01-27T14:47:43.488Z,10.60
2024-01-27T14:50:11.414Z,10.70
2024-01-27T14:52:38.804Z,10.90
2024-01-27T14:55:06.382Z,11.00
2024-01-27T14:57:33.824Z,11.20
2024-01-27T15:00:01.258Z,11.30
2024-01-27T15:02:30.760Z,11.20
2024-01-27T15:04:58.141Z,11.20
2024-01-27T15:07:30.894Z,11.10
2024-01-27T15:09:58.401Z,10.90
2024-01-27T15:12:26.878Z,10.90
2024-01-27T15:14:54.335Z,10.90
2024-01-27T15:17:23.736Z,10.80
2024-01-27T15:19:55.695Z,10.80
2024-01-27T15:22:23.106Z,10.80
2024-01-27T15:24:51.005Z,10.70
2024-01-27T15:27:18.402Z,10.80
2024-01-27T15:29:46.137Z,10.60
2024-01-27T15:32:13.739Z,10.40
2024-01-27T15:34:41.273Z,10.30
2024-01-27T15:37:10.163Z,10.20
2024-01-27T15:39:37.643Z,10.20
2024-01-27T15:42:05.587Z,10.00
2024-01-27T15:44:33.198Z,9.90
2024-01-27T15:47:01.293Z,9.70
2024-01-27T15:49:29.137Z,9.60
2024-01-27T15:51:56.570Z,9.50
2024-01-27T15:54:23.963Z,9.30
2024-01-27T15:56:51.394Z,9.20
2024-01-27T15:59:18.707Z,9.10
2024-01-27T16:01:46.040Z,9.10
2024-01-27T16:04:16.743Z,9.00
2024-01-27T16:06:46.024Z,8.90
2024-01-27T16:09:13.565Z,8.90
2024-01-27T16:11:41.365Z,8.80
2024-01-27T16:14:09.744Z,8.80
2024-01-27T16:16:37.653Z,8.70
2024-01-27T16:19:05.170Z,8.70
2024-01-27T16:21:33.670Z,8.60
2024-01-27T16:24:01.366Z,8.50
2024-01-27T16:26:28.828Z,8.50
2024-01-27T16:28:57.446Z,8.40
2024-01-27T16:31:24.913Z,8.40
2024-01-27T16:33:53.125Z,8.30
2024-01-27T16:36:22.172Z,8.20
2024-01-27T16:38:49.905Z,8.20
2024-01-27T16:41:17.525Z,8.10
2024-01-27T16:43:45.057Z,8.00
2024-01-27T16:46:12.753Z,8.10
2024-01-27T16:48:41.088Z,8.00
2024-01-27T16:51:08.586Z,8.00
2024-01-27T16:53:36.609Z,7.90
2024-01-27T16:56:04.505Z,7.90
2024-01-27T16:58:31.892Z,7.80
2024-01-27T17:00:59.725Z,7.80
2024-01-27T17:03:27.385Z,7.80
2024-01-27T17:05:54.817Z,7.70
2024-01-27T17:08:22.228Z,7.70
2024-01-27T17:10:49.621Z,7.60
2024-01-27T17:13:17.107Z,7.60
2024-01-27T17:15:46.935Z,7.60
2024-01-27T17:18:15.663Z,7.60
2024-01-27T17:20:45.289Z,7.50
2024-01-27T17:23:13.015Z,7.50
2024-01-27T17:25:40.540Z,7.50
2024-01-27T17:28:08.388Z,7.40
2024-01-27T17:30:36.253Z,7.40
2024-01-27T17:33:04.152Z,7.30
2024-01-27T17:35:31.619Z,7.30
2024-01-27T17:37:59.074Z,7.30
2024-01-27T17:40:26.387Z,7.20
2024-01-27T17:42:54.068Z,7.20
2024-01-27T17:45:21.526Z,7.10
2024-01-27T17:47:52.796Z,7.10
2024-01-27T17:50:20.301Z,7.00
2024-01-27T17:52:47.804Z,6.90
2024-01-27T17:55:15.726Z,6.90
2024-01-27T17:57:43.144Z,6.90
2024-01-27T18:00:14.661Z,6.90
2024-01-27T18:02:42.138Z,6.80
2024-01-27T18:05:10.699Z,6.80
2024-01-27T18:07:38.983Z,6.80
2024-01-27T18:10:08.911Z,6.80
2024-01-27T18:12:38.495Z,6.70
2024-01-27T18:15:09.056Z,6.70
2024-01-27T18:17:42.942Z,6.70
2024-01-27T18:20:11.669Z,6.70
2024-01-27T18:22:39.183Z,6.70
2024-01-27T18:25:09.202Z,6.70
2024-01-27T18:27:36.673Z,6.70
2024-01-27T18:30:09.813Z,6.70
2024-01-27T18:32:37.997Z,6.60
2024-01-27T18:35:05.848Z,6.60
2024-01-27T18:37:33.233Z,6.60
2024-01-27T18:40:02.018Z,6.60
2024-01-27T18:42:30.364Z,6.50
2024-01-27T18:44:58.247Z,6.60
2024-01-27T18:47:27.186Z,6.50
2024-01-27T18:49:54.816Z,6.50
2024-01-27T18:52:22.435Z,6.40
2024-01-27T18:54:49.900Z,6.40
2024-01-27T18:57:19.030Z,6.30
2024-01-27T18:59:48.871Z,6.40
2024-01-27T19:02:16.424Z,6.30
2024-01-27T19:04:44.459Z,6.30
2024-01-27T19:07:12.533Z,6.30
2024-01-27T19:09:40.390Z,6.30
2024-01-27T19:12:08.520Z,6.30
2024-01-27T19:14:37.824Z,6.20
2024-01-27T19:17:07.285Z,6.20
2024-01-27T19:19:35.806Z,6.20
2024-01-27T19:22:03.673Z,6.10
2024-01-27T19:24:31.529Z,6.10
2024-01-27T19:26:59.751Z,6.10
2024-01-27T19:29:27.277Z,6.00
2024-01-27T19:31:55.818Z,6.10
2024-01-27T19:34:23.296Z,6.00
2024-01-27T19:36:50.847Z,6.00
2024-01-27T19:39:18.258Z,6.00
2024-01-27T19:41:46.640Z,6.00
2024-01-27T19:44:13.948Z,6.00
2024-01-27T19:46:41.323Z,5.90
2024-01-27T19:49:10.202Z,5.90
2024-01-27T19:51:44.837Z,5.90
2024-01-27T19:54:12.313Z,5.90
2024-01-27T19:56:39.740Z,5.90
2024-01-27T19:59:07.196Z,6.00
2024-01-27T20:01:34.521Z,5.90
2024-01-27T20:04:03.380Z,5.90
2024-01-27T20:06:31.022Z,5.90
2024-01-27T20:09:05.689Z,5.90
2024-01-27T20:11:39.637Z,5.90
2024-01-27T20:14:08.811Z,5.90
2024-01-27T20:16:36.542Z,5.90
2024-01-27T20:19:05.320Z,6.00
2024-01-27T20:21:32.766Z,5.90
2024-01-27T20:24:02.744Z,5.90
2024-01-27T20:26:30.177Z,5.90
2024-01-27T20:28:57.602Z,6.00
2024-01-27T20:31:25.333Z,6.00
2024-01-27T20:33:53.550Z,6.10
2024-01-27T20:36:20.985Z,6.10
2024-01-27T20:38:48.675Z,6.20
2024-01-27T20:41:16.778Z,6.20
2024-01-27T20:43:46.535Z,6.20
2024-01-27T20:46:14.655Z,6.20
2024-01-27T20:48:42.339Z,6.20
2024-01-27T20:51:11.595Z,6.20
2024-01-27T20:53:39.177Z,6.30
2024-01-27T20:56:06.698Z,6.20
2024-01-27T20:58:34.119Z,6.20
2024-01-27T21:01:01.783Z,6.20
2024-01-27T21:03:30.377Z,6.20
2024-01-27T21:05:58.985Z,6.20
2024-01-27T21:08:26.314Z,6.20
2024-01-27T21:10:53.808Z,6.20
2024-01-27T21:13:21.455Z,6.20
2024-01-27T21:15:48.894Z,6.20
2024-01-27T21:18:17.014Z,6.10
2024-01-27T21:20:44.386Z,6.10
2024-01-27T21:23:12.157Z,6.10
2024-01-27T21:25:40.704Z,6.10
2024-01-27T21:28:08.019Z,6.10
2024-01-27T21:30:36.166Z,6.00
2024-01-27T21:33:04.239Z,6.00
2024-01-27T21:35:34.817Z,6.00
2024-01-27T21:38:03.118Z,5.90
2024-01-27T21:40:30.872Z,5.90
2024-01-27T21:42:58.306Z,5.90
2024-01-27T21:45:26.159Z,5.80
2024-01-27T21:47:54.935Z,5.80
2024-01-27T21:50:22.408Z,5.80
2024-01-27T21:52:49.725Z,5.80
2024-01-27T21:55:18.573Z,5.70
2024-01-27T21:57:45.972Z,5.80
2024-01-27T22:00:14.548Z,5.80
2024-01-27T22:02:42.337Z,5.70
2024-01-27T22:05:13.257Z,5.70
2024-01-27T22:07:41.443Z,5.70
2024-01-27T22:10:10.105Z,5.70
2024-01-27T22:12:37.757Z,5.70
2024-01-27T22:15:06.929Z,5.80
2024-01-27T22:17:34.947Z,5.70
2024-01-27T22:20:02.343Z,5.70
2024-01-27T22:22:29.748Z,5.70
2024-01-27T22:24:57.771Z,5.70
2024-01-27T22:27:25.385Z,5.70
2024-01-27T22:29:52.661Z,5.80
2024-01-27T22:32:19.980Z,5.80
2024-01-27T22:34:48.982Z,5.80
2024-01-27T22:37:16.450Z,5.90
2024-01-27T22:39:43.849Z,5.90
2024-01-27T22:42:11.303Z,5.90
2024-01-27T22:44:38.705Z,5.80
2024-01-27T22:47:06.542Z,5.80
2024-01-27T22:49:35.247Z,5.80
2024-01-27T22:52:06.796Z,5.80
2024-01-27T22:54:36.151Z,5.90
2024-01-27T22:57:03.786Z,5.90
2024-01-27T22:59:31.240Z,5.90
2024-01-27T23:01:58.567Z,6.00
2024-01-27T23:04:26.413Z,5.90
2024-01-27T23:06:54.311Z,5.90
2024-01-27T23:09:22.106Z,5.90
2024-01-27T23:11:50.056Z,5.80
2024-01-27T23:14:18.037Z,5.80
2024-01-27T23:16:45.399Z,5.80
2024-01-27T23:19:13.984Z,5.70
2024-01-27T23:21:42.134Z,5.80
2024-01-27T23:24:10.814Z,5.70
2024-01-27T23:26:38.738Z,5.70
2024-01-27T23:29:06.070Z,5.80
2024-01-27T23:31:33.497Z,5.80
2024-01-27T23:34:01.115Z,5.70
2024-01-27T23:36:31.102Z,5.70
2024-01-27T23:38:59.857Z,5.60
2024-01-27T23:41:27.178Z,5.60
2024-01-27T23:43:54.552Z,5.60
2024-01-27T23:46:22.216Z,5.60
2024-01-27T23:48:49.920Z,5.50
2024-01-27T23:51:18.742Z,5.50
2024-01-27T23:53:46.133Z,5.50
2024-01-27T23:56:14.707Z,5.50
2024-01-27T23:58:43.946Z,5.50
